Terminal Aerodrome Forecast
Issued by NWS Denver/Boulder, CO

Home | Current Version | Previous Version | Text Only | Print | Product List | Glossary On
Versions: 1 2 3 4 5 6 7 8 9 10 11 12 13 14 15 16 17 18 19 20 21 22 23 24 25 26 27 28 29 30 31 32 33 34 35 36 37 38 39 40 41 42 43 44 45 46 47 48 49 50
000
FTUS45 KBOU 231543 AAF
TAFDEN
TAF AMD
KDEN 231543Z 2316/2418 21006KT 1/4SM FZFG BKN001 OVC005
      TEMPO 2316/2317 3/4SM BR BKN003 OVC007
     FM231700 13007KT P6SM VCFG SCT030 SCT080
     FM232200 03007KT P6SM VCSH SCT014 BKN030
      TEMPO 2323/2402 3SM -SHSN BR BKN010 BKN020
     FM240200 34010KT 3SM -SN BR SCT005 OVC010
      TEMPO 2402/2405 1SM -SN BR BKN005
     FM240700 26006KT P6SM VCFG SCT005 BKN030
     FM241200 22006KT P6SM SCT025 BKN100
     FM241600 27012KT P6SM FEW120=

USA.gov is the U.S. government's official web portal to all federal, state and local government web resources and services.